Charles M. Schulz Sonoma County Airport
KSTS : now visible

Airfield :











YOU CAN JOIN US ON...

 
LOGIN :

Register | Disclaimer

   EN    FR    IT 

 









Legend :    VFR   Marginal VFR   IFR   Intensive IFR   Very Intensive IFR
Visi :
Ceiling :
>= 8 km
>= 3000ft
5 to 8 km
1000 to 3000 ft
1500m to 5 km
500 to 1000 ft
800 to 1500m
200 to 500 ft
< 800m
< 200 ft
Symbols :   Thunderstorms  Fog  Heavy snow  Heavy precipitations  Wind > 20 kt






- Airport Elevation : 128 ft


KSTS - Charles M. Schulz Sonoma County

CURRENT METAR :
  • 011453Z 00000KT 10SM FEW200 M02/M03 A3021 RMK AO2 SLP223 T10171033 53007

EXPIRED METARs :
  • 011353Z AUTO 00000KT 10SM CLR M02/M03 A3019 RMK AO2 SLP219 T10171028
  • 011253Z AUTO 00000KT 10SM CLR M01/M02 A3019 RMK AO2 SLP217 T10111022
  • 011153Z AUTO 00000KT 10SM CLR M01/M02 A3019 RMK AO2 SLP216 T10061022 10039 21011 58001

TAF KSTS
Valid from the 01 at 14:00 until the 02 at 12:00 UTC


011401Z 0114/0212 00000KT P6SM SCT250
FM011700 VRB03KT P6SM SCT250
FM012200 17009KT P6SM SCT200
KZOA FIR / North America



MET'MAP, your aeronautical weather chart ! - Copyright ORBIFLY December 2007 - Disclaimer

ORBIFLY MET'MAP TEAM :

Programming & Development : Alexandra Zaïnal
Original concept : Baudouin d'Aumeries
Technical & hardware support : Manuel Goepfert
Assistance : Marc-Olivier Méhu




SOURCES & CREDITS :

   NOAA       Earth
Advisory